<?xml version="1.0" encoding="UTF-8" standalone="no" ?>
<gpx xmlns="http://www.topografix.com/GPX/1/1" xmlns:xsi="http://www.w3.org/2001/XMLSchema-instance" xsi:schemaLocation="http://www.topografix.com/GPX/1/1 http://www.topografix.com/GPX/1/1/gpx.xsd" version="1.1" creator="VisuGPX - https://www.visugpx.com">
  <metadata>
    <name>carte Normandie</name>
  </metadata>
  <trk>
    <name><![CDATA[carte Normandie_2]]></name>
    <trkseg>
      <trkpt lat="48.90047" lon="-0.47464">
        <ele>67</ele>
        <time>2018-04-08T20:31:30Z</time>
      </trkpt>
      <trkpt lat="48.90188" lon="-0.47902">
        <ele>96</ele>
        <time>2018-04-08T20:32:30Z</time>
      </trkpt>
      <trkpt lat="48.90306" lon="-0.47893">
        <ele>105</ele>
        <time>2018-04-08T20:33:30Z</time>
      </trkpt>
      <trkpt lat="48.90456" lon="-0.48048">
        <ele>130</ele>
        <time>2018-04-08T20:34:30Z</time>
      </trkpt>
      <trkpt lat="48.90569" lon="-0.48001">
        <ele>131</ele>
        <time>2018-04-08T20:35:30Z</time>
      </trkpt>
      <trkpt lat="48.90964" lon="-0.48224">
        <ele>95</ele>
        <time>2018-04-08T20:36:30Z</time>
      </trkpt>
      <trkpt lat="48.91161" lon="-0.48357">
        <ele>100</ele>
        <time>2018-04-08T20:37:30Z</time>
      </trkpt>
      <trkpt lat="48.91404" lon="-0.484">
        <ele>77</ele>
        <time>2018-04-08T20:38:30Z</time>
      </trkpt>
      <trkpt lat="48.91311" lon="-0.48661">
        <ele>72</ele>
        <time>2018-04-08T20:39:30Z</time>
      </trkpt>
      <trkpt lat="48.91139" lon="-0.4891">
        <ele>70</ele>
        <time>2018-04-08T20:40:30Z</time>
      </trkpt>
      <trkpt lat="48.91014" lon="-0.49061">
        <ele>70</ele>
        <time>2018-04-08T20:41:30Z</time>
      </trkpt>
      <trkpt lat="48.90913" lon="-0.49292">
        <ele>70</ele>
        <time>2018-04-08T20:42:30Z</time>
      </trkpt>
      <trkpt lat="48.90778" lon="-0.49258">
        <ele>78</ele>
        <time>2018-04-08T20:43:30Z</time>
      </trkpt>
      <trkpt lat="48.90732" lon="-0.49322">
        <ele>75</ele>
        <time>2018-04-08T20:44:30Z</time>
      </trkpt>
      <trkpt lat="48.90594" lon="-0.49254">
        <ele>85</ele>
        <time>2018-04-08T20:45:30Z</time>
      </trkpt>
      <trkpt lat="48.90408" lon="-0.49099">
        <ele>107</ele>
        <time>2018-04-08T20:46:30Z</time>
      </trkpt>
      <trkpt lat="48.90213" lon="-0.49189">
        <ele>125</ele>
        <time>2018-04-08T20:47:30Z</time>
      </trkpt>
      <trkpt lat="48.89988" lon="-0.49168">
        <ele>154</ele>
        <time>2018-04-08T20:48:30Z</time>
      </trkpt>
      <trkpt lat="48.89649" lon="-0.49236">
        <ele>181</ele>
        <time>2018-04-08T20:49:30Z</time>
      </trkpt>
      <trkpt lat="48.89333" lon="-0.49039">
        <ele>201</ele>
        <time>2018-04-08T20:50:30Z</time>
      </trkpt>
      <trkpt lat="48.89155" lon="-0.49091">
        <ele>212</ele>
        <time>2018-04-08T20:51:30Z</time>
      </trkpt>
      <trkpt lat="48.89274" lon="-0.49254">
        <ele>183</ele>
        <time>2018-04-08T20:52:30Z</time>
      </trkpt>
      <trkpt lat="48.89285" lon="-0.49344">
        <ele>181</ele>
        <time>2018-04-08T20:53:30Z</time>
      </trkpt>
      <trkpt lat="48.89361" lon="-0.49464">
        <ele>166</ele>
        <time>2018-04-08T20:54:30Z</time>
      </trkpt>
      <trkpt lat="48.895" lon="-0.49571">
        <ele>150</ele>
        <time>2018-04-08T20:55:30Z</time>
      </trkpt>
      <trkpt lat="48.89539" lon="-0.49781">
        <ele>152</ele>
        <time>2018-04-08T20:56:30Z</time>
      </trkpt>
      <trkpt lat="48.8966" lon="-0.49915">
        <ele>149</ele>
        <time>2018-04-08T20:57:30Z</time>
      </trkpt>
      <trkpt lat="48.89446" lon="-0.50528">
        <ele>192</ele>
        <time>2018-04-08T20:58:30Z</time>
      </trkpt>
      <trkpt lat="48.89604" lon="-0.50721">
        <ele>156</ele>
        <time>2018-04-08T20:59:30Z</time>
      </trkpt>
      <trkpt lat="48.89598" lon="-0.50833">
        <ele>151</ele>
        <time>2018-04-08T21:00:30Z</time>
      </trkpt>
      <trkpt lat="48.89633" lon="-0.50815">
        <ele>148</ele>
        <time>2018-04-08T21:01:30Z</time>
      </trkpt>
      <trkpt lat="48.89695" lon="-0.50925">
        <ele>149</ele>
        <time>2018-04-08T21:02:30Z</time>
      </trkpt>
      <trkpt lat="48.89557" lon="-0.51126">
        <ele>173</ele>
        <time>2018-04-08T21:03:30Z</time>
      </trkpt>
      <trkpt lat="48.89485" lon="-0.51251">
        <ele>187</ele>
        <time>2018-04-08T21:04:30Z</time>
      </trkpt>
      <trkpt lat="48.89435" lon="-0.51655">
        <ele>215</ele>
        <time>2018-04-08T21:05:30Z</time>
      </trkpt>
      <trkpt lat="48.89438" lon="-0.51867">
        <ele>224</ele>
        <time>2018-04-08T21:06:30Z</time>
      </trkpt>
      <trkpt lat="48.89361" lon="-0.52198">
        <ele>230</ele>
        <time>2018-04-08T21:07:30Z</time>
      </trkpt>
      <trkpt lat="48.89288" lon="-0.52279">
        <ele>235</ele>
        <time>2018-04-08T21:08:30Z</time>
      </trkpt>
      <trkpt lat="48.89186" lon="-0.52288">
        <ele>240</ele>
        <time>2018-04-08T21:09:30Z</time>
      </trkpt>
      <trkpt lat="48.89178" lon="-0.52695">
        <ele>236</ele>
        <time>2018-04-08T21:10:30Z</time>
      </trkpt>
      <trkpt lat="48.89248" lon="-0.53189">
        <ele>227</ele>
        <time>2018-04-08T21:11:30Z</time>
      </trkpt>
      <trkpt lat="48.89223" lon="-0.53378">
        <ele>229</ele>
        <time>2018-04-08T21:12:30Z</time>
      </trkpt>
      <trkpt lat="48.89028" lon="-0.53764">
        <ele>229</ele>
        <time>2018-04-08T21:13:30Z</time>
      </trkpt>
      <trkpt lat="48.88865" lon="-0.53897">
        <ele>226</ele>
        <time>2018-04-08T21:14:30Z</time>
      </trkpt>
      <trkpt lat="48.88574" lon="-0.54485">
        <ele>227</ele>
        <time>2018-04-08T21:15:30Z</time>
      </trkpt>
      <trkpt lat="48.88374" lon="-0.54708">
        <ele>222</ele>
        <time>2018-04-08T21:16:30Z</time>
      </trkpt>
      <trkpt lat="48.8825" lon="-0.55124">
        <ele>219</ele>
        <time>2018-04-08T21:17:30Z</time>
      </trkpt>
      <trkpt lat="48.88176" lon="-0.5536">
        <ele>220</ele>
        <time>2018-04-08T21:18:30Z</time>
      </trkpt>
      <trkpt lat="48.88176" lon="-0.55481">
        <ele>224</ele>
        <time>2018-04-08T21:19:30Z</time>
      </trkpt>
      <trkpt lat="48.88114" lon="-0.55751">
        <ele>216</ele>
        <time>2018-04-08T21:20:30Z</time>
      </trkpt>
      <trkpt lat="48.88123" lon="-0.56081">
        <ele>212</ele>
        <time>2018-04-08T21:21:30Z</time>
      </trkpt>
      <trkpt lat="48.881" lon="-0.56184">
        <ele>211</ele>
        <time>2018-04-08T21:22:30Z</time>
      </trkpt>
      <trkpt lat="48.881" lon="-0.56657">
        <ele>196</ele>
        <time>2018-04-08T21:23:30Z</time>
      </trkpt>
      <trkpt lat="48.87996" lon="-0.56807">
        <ele>182</ele>
        <time>2018-04-08T21:24:30Z</time>
      </trkpt>
      <trkpt lat="48.87933" lon="-0.5697">
        <ele>173</ele>
        <time>2018-04-08T21:25:30Z</time>
      </trkpt>
      <trkpt lat="48.88185" lon="-0.57232">
        <ele>159</ele>
        <time>2018-04-08T21:26:30Z</time>
      </trkpt>
      <trkpt lat="48.88329" lon="-0.5721">
        <ele>137</ele>
        <time>2018-04-08T21:27:30Z</time>
      </trkpt>
      <trkpt lat="48.88375" lon="-0.57178">
        <ele>135</ele>
        <time>2018-04-08T21:28:30Z</time>
      </trkpt>
      <trkpt lat="48.88566" lon="-0.57412">
        <ele>152</ele>
        <time>2018-04-08T21:29:30Z</time>
      </trkpt>
      <trkpt lat="48.88633" lon="-0.5729">
        <ele>154</ele>
        <time>2018-04-08T21:30:30Z</time>
      </trkpt>
      <trkpt lat="48.88848" lon="-0.57257">
        <ele>172</ele>
        <time>2018-04-08T21:31:30Z</time>
      </trkpt>
      <trkpt lat="48.89017" lon="-0.57174">
        <ele>186</ele>
        <time>2018-04-08T21:32:30Z</time>
      </trkpt>
      <trkpt lat="48.89189" lon="-0.57204">
        <ele>199</ele>
        <time>2018-04-08T21:33:30Z</time>
      </trkpt>
      <trkpt lat="48.89333" lon="-0.57393">
        <ele>197</ele>
        <time>2018-04-08T21:34:30Z</time>
      </trkpt>
      <trkpt lat="48.8949" lon="-0.57395">
        <ele>199</ele>
        <time>2018-04-08T21:35:30Z</time>
      </trkpt>
      <trkpt lat="48.89515" lon="-0.57457">
        <ele>203</ele>
        <time>2018-04-08T21:36:30Z</time>
      </trkpt>
      <trkpt lat="48.89663" lon="-0.57669">
        <ele>227</ele>
        <time>2018-04-08T21:37:30Z</time>
      </trkpt>
      <trkpt lat="48.89751" lon="-0.57963">
        <ele>236</ele>
        <time>2018-04-08T21:38:30Z</time>
      </trkpt>
      <trkpt lat="48.89903" lon="-0.5803">
        <ele>231</ele>
        <time>2018-04-08T21:39:30Z</time>
      </trkpt>
      <trkpt lat="48.9002" lon="-0.58304">
        <ele>209</ele>
        <time>2018-04-08T21:40:30Z</time>
      </trkpt>
      <trkpt lat="48.89965" lon="-0.58562">
        <ele>197</ele>
        <time>2018-04-08T21:41:30Z</time>
      </trkpt>
      <trkpt lat="48.89957" lon="-0.5868">
        <ele>187</ele>
        <time>2018-04-08T21:42:30Z</time>
      </trkpt>
      <trkpt lat="48.89718" lon="-0.58712">
        <ele>161</ele>
        <time>2018-04-08T21:43:30Z</time>
      </trkpt>
      <trkpt lat="48.89625" lon="-0.58783">
        <ele>142</ele>
        <time>2018-04-08T21:44:30Z</time>
      </trkpt>
      <trkpt lat="48.89694" lon="-0.58953">
        <ele>140</ele>
        <time>2018-04-08T21:45:30Z</time>
      </trkpt>
      <trkpt lat="48.90033" lon="-0.58744">
        <ele>178</ele>
        <time>2018-04-08T21:46:30Z</time>
      </trkpt>
      <trkpt lat="48.90014" lon="-0.58839">
        <ele>178</ele>
        <time>2018-04-08T21:47:30Z</time>
      </trkpt>
      <trkpt lat="48.89935" lon="-0.5897">
        <ele>172</ele>
        <time>2018-04-08T21:48:30Z</time>
      </trkpt>
      <trkpt lat="48.89904" lon="-0.59083">
        <ele>172</ele>
        <time>2018-04-08T21:49:30Z</time>
      </trkpt>
      <trkpt lat="48.89985" lon="-0.5921">
        <ele>171</ele>
        <time>2018-04-08T21:50:30Z</time>
      </trkpt>
      <trkpt lat="48.90037" lon="-0.59219">
        <ele>188</ele>
        <time>2018-04-08T21:51:30Z</time>
      </trkpt>
      <trkpt lat="48.90115" lon="-0.59613">
        <ele>180</ele>
        <time>2018-04-08T21:52:30Z</time>
      </trkpt>
      <trkpt lat="48.90163" lon="-0.59515">
        <ele>201</ele>
        <time>2018-04-08T21:53:30Z</time>
      </trkpt>
      <trkpt lat="48.90786" lon="-0.59639">
        <ele>188</ele>
        <time>2018-04-08T21:54:30Z</time>
      </trkpt>
      <trkpt lat="48.91023" lon="-0.59721">
        <ele>150</ele>
        <time>2018-04-08T21:55:30Z</time>
      </trkpt>
      <trkpt lat="48.91127" lon="-0.59592">
        <ele>146</ele>
        <time>2018-04-08T21:56:30Z</time>
      </trkpt>
      <trkpt lat="48.91102" lon="-0.59751">
        <ele>137</ele>
        <time>2018-04-08T21:57:30Z</time>
      </trkpt>
      <trkpt lat="48.91045" lon="-0.59819">
        <ele>134</ele>
        <time>2018-04-08T21:58:30Z</time>
      </trkpt>
      <trkpt lat="48.91062" lon="-0.59888">
        <ele>129</ele>
        <time>2018-04-08T21:59:30Z</time>
      </trkpt>
      <trkpt lat="48.9104" lon="-0.59927">
        <ele>128</ele>
        <time>2018-04-08T22:00:30Z</time>
      </trkpt>
      <trkpt lat="48.91065" lon="-0.60008">
        <ele>131</ele>
        <time>2018-04-08T22:01:30Z</time>
      </trkpt>
      <trkpt lat="48.91014" lon="-0.60051">
        <ele>134</ele>
        <time>2018-04-08T22:02:30Z</time>
      </trkpt>
      <trkpt lat="48.91003" lon="-0.60146">
        <ele>145</ele>
        <time>2018-04-08T22:03:30Z</time>
      </trkpt>
      <trkpt lat="48.91048" lon="-0.60386">
        <ele>159</ele>
        <time>2018-04-08T22:04:30Z</time>
      </trkpt>
      <trkpt lat="48.91243" lon="-0.60476">
        <ele>193</ele>
        <time>2018-04-08T22:05:30Z</time>
      </trkpt>
      <trkpt lat="48.91302" lon="-0.60661">
        <ele>196</ele>
        <time>2018-04-08T22:06:30Z</time>
      </trkpt>
      <trkpt lat="48.91457" lon="-0.60708">
        <ele>198</ele>
        <time>2018-04-08T22:07:30Z</time>
      </trkpt>
      <trkpt lat="48.9155" lon="-0.60819">
        <ele>199</ele>
        <time>2018-04-08T22:08:30Z</time>
      </trkpt>
      <trkpt lat="48.91534" lon="-0.60806">
        <ele>199.34765625</ele>
      </trkpt>
      <trkpt lat="48.91562" lon="-0.60755">
        <ele>197.5234375</ele>
      </trkpt>
      <trkpt lat="48.91579" lon="-0.60767">
        <ele>198.03515625</ele>
      </trkpt>
      <trkpt lat="48.91659" lon="-0.60759">
        <ele>200.01953125</ele>
      </trkpt>
      <trkpt lat="48.91649" lon="-0.6064">
        <ele>200.2890625</ele>
      </trkpt>
      <trkpt lat="48.91612" lon="-0.60539">
        <ele>201.33203125</ele>
      </trkpt>
      <trkpt lat="48.91545" lon="-0.60317">
        <ele>200.62109375</ele>
      </trkpt>
      <trkpt lat="48.91552" lon="-0.60256">
        <ele>197.984375</ele>
      </trkpt>
      <trkpt lat="48.91549" lon="-0.60083">
        <ele>185.96875</ele>
      </trkpt>
      <trkpt lat="48.91612" lon="-0.60017">
        <ele>178.71875</ele>
      </trkpt>
      <trkpt lat="48.91639" lon="-0.59839">
        <ele>152.33203125</ele>
      </trkpt>
      <trkpt lat="48.9166" lon="-0.59839">
        <ele>149.41015625</ele>
      </trkpt>
      <trkpt lat="48.91684" lon="-0.59849">
        <ele>147.7109375</ele>
      </trkpt>
      <trkpt lat="48.91719" lon="-0.59888">
        <ele>148.32421875</ele>
      </trkpt>
      <trkpt lat="48.91799" lon="-0.59976">
        <ele>148.77734375</ele>
      </trkpt>
      <trkpt lat="48.91818" lon="-0.59976">
        <ele>151.60546875</ele>
      </trkpt>
      <trkpt lat="48.91868" lon="-0.59987">
        <ele>160.8515625</ele>
      </trkpt>
      <trkpt lat="48.91957" lon="-0.59985">
        <ele>167.5390625</ele>
      </trkpt>
      <trkpt lat="48.92066" lon="-0.59941">
        <ele>174.04296875</ele>
      </trkpt>
      <trkpt lat="48.92118" lon="-0.5988">
        <ele>173.31640625</ele>
      </trkpt>
      <trkpt lat="48.92222" lon="-0.59713">
        <ele>180.625</ele>
      </trkpt>
      <trkpt lat="48.92245" lon="-0.5965">
        <ele>182.60546875</ele>
      </trkpt>
      <trkpt lat="48.92246" lon="-0.59539">
        <ele>178.09765625</ele>
      </trkpt>
      <trkpt lat="48.92277" lon="-0.59471">
        <ele>179.62109375</ele>
      </trkpt>
      <trkpt lat="48.92308" lon="-0.59395">
        <ele>176.109375</ele>
      </trkpt>
      <trkpt lat="48.9237" lon="-0.59549">
        <ele>199.33984375</ele>
      </trkpt>
      <trkpt lat="48.9239" lon="-0.59648">
        <ele>205.4375</ele>
      </trkpt>
      <trkpt lat="48.92524" lon="-0.59914">
        <ele>210.7734375</ele>
      </trkpt>
      <trkpt lat="48.92575" lon="-0.60094">
        <ele>213.69921875</ele>
      </trkpt>
      <trkpt lat="48.92598" lon="-0.60148">
        <ele>215.88671875</ele>
      </trkpt>
      <trkpt lat="48.92626" lon="-0.60267">
        <ele>221.36328125</ele>
      </trkpt>
      <trkpt lat="48.92715" lon="-0.60404">
        <ele>227.38671875</ele>
      </trkpt>
      <trkpt lat="48.92753" lon="-0.60497">
        <ele>230.046875</ele>
      </trkpt>
      <trkpt lat="48.92814" lon="-0.60715">
        <ele>230.6953125</ele>
      </trkpt>
      <trkpt lat="48.92905" lon="-0.6098">
        <ele>235.2578125</ele>
      </trkpt>
      <trkpt lat="48.93023" lon="-0.60784">
        <ele>235.82421875</ele>
      </trkpt>
      <trkpt lat="48.93138" lon="-0.60384">
        <ele>223.01171875</ele>
      </trkpt>
      <trkpt lat="48.93248" lon="-0.60257">
        <ele>226.38671875</ele>
      </trkpt>
      <trkpt lat="48.93288" lon="-0.60367">
        <ele>228.17578125</ele>
      </trkpt>
      <trkpt lat="48.93356" lon="-0.60505">
        <ele>233.5</ele>
      </trkpt>
      <trkpt lat="48.93402" lon="-0.60493">
        <ele>233.08203125</ele>
      </trkpt>
      <trkpt lat="48.93416" lon="-0.60478">
        <ele>232.51953125</ele>
      </trkpt>
      <trkpt lat="48.93486" lon="-0.60441">
        <ele>231.18359375</ele>
      </trkpt>
      <trkpt lat="48.9373" lon="-0.60499">
        <ele>237.73828125</ele>
      </trkpt>
      <trkpt lat="48.93821" lon="-0.60511">
        <ele>240.1640625</ele>
      </trkpt>
      <trkpt lat="48.93979" lon="-0.60505">
        <ele>240.5</ele>
      </trkpt>
      <trkpt lat="48.94178" lon="-0.60466">
        <ele>241.93359375</ele>
      </trkpt>
      <trkpt lat="48.94202" lon="-0.6055">
        <ele>243.6953125</ele>
      </trkpt>
      <trkpt lat="48.94229" lon="-0.60522">
        <ele>243.8125</ele>
      </trkpt>
      <trkpt lat="48.94396" lon="-0.6038">
        <ele>247.40234375</ele>
      </trkpt>
      <trkpt lat="48.94446" lon="-0.60637">
        <ele>239.8203125</ele>
      </trkpt>
      <trkpt lat="48.94461" lon="-0.60676">
        <ele>239.13671875</ele>
      </trkpt>
      <trkpt lat="48.94473" lon="-0.60735">
        <ele>238.46875</ele>
      </trkpt>
      <trkpt lat="48.94512" lon="-0.60725">
        <ele>239.8203125</ele>
      </trkpt>
      <trkpt lat="48.94569" lon="-0.60749">
        <ele>241.828125</ele>
      </trkpt>
      <trkpt lat="48.94628" lon="-0.60758">
        <ele>244.63671875</ele>
      </trkpt>
      <trkpt lat="48.94776" lon="-0.60692">
        <ele>253.0625</ele>
      </trkpt>
      <trkpt lat="48.9492" lon="-0.60591">
        <ele>259.98046875</ele>
      </trkpt>
      <trkpt lat="48.95063" lon="-0.60532">
        <ele>266.48046875</ele>
      </trkpt>
      <trkpt lat="48.95167" lon="-0.60534">
        <ele>272.11328125</ele>
      </trkpt>
      <trkpt lat="48.95197" lon="-0.60283">
        <ele>272.69140625</ele>
      </trkpt>
      <trkpt lat="48.95282" lon="-0.60312">
        <ele>276.51953125</ele>
      </trkpt>
      <trkpt lat="48.95487" lon="-0.60478">
        <ele>277.7421875</ele>
      </trkpt>
      <trkpt lat="48.95507" lon="-0.60524">
        <ele>276.8984375</ele>
      </trkpt>
      <trkpt lat="48.9554" lon="-0.60651">
        <ele>274.6171875</ele>
      </trkpt>
      <trkpt lat="48.95559" lon="-0.60676">
        <ele>274.16015625</ele>
      </trkpt>
      <trkpt lat="48.95608" lon="-0.60692">
        <ele>273.7578125</ele>
      </trkpt>
      <trkpt lat="48.95674" lon="-0.60667">
        <ele>273.515625</ele>
      </trkpt>
      <trkpt lat="48.95687" lon="-0.60667">
        <ele>273.3359375</ele>
      </trkpt>
      <trkpt lat="48.95767" lon="-0.60807">
        <ele>269.80859375</ele>
      </trkpt>
      <trkpt lat="48.95795" lon="-0.60813">
        <ele>269.71484375</ele>
      </trkpt>
      <trkpt lat="48.95899" lon="-0.60925">
        <ele>273.37109375</ele>
      </trkpt>
      <trkpt lat="48.95953" lon="-0.61061">
        <ele>273.08203125</ele>
      </trkpt>
      <trkpt lat="48.95972" lon="-0.61089">
        <ele>272.71484375</ele>
      </trkpt>
      <trkpt lat="48.96076" lon="-0.60989">
        <ele>276.58984375</ele>
      </trkpt>
      <trkpt lat="48.96088" lon="-0.60987">
        <ele>276.83984375</ele>
      </trkpt>
      <trkpt lat="48.96104" lon="-0.61044">
        <ele>276.37890625</ele>
      </trkpt>
      <trkpt lat="48.961" lon="-0.61065">
        <ele>276.078125</ele>
      </trkpt>
      <trkpt lat="48.96088" lon="-0.61141">
        <ele>275.84375</ele>
      </trkpt>
      <trkpt lat="48.96112" lon="-0.61225">
        <ele>276.63671875</ele>
      </trkpt>
      <trkpt lat="48.9618" lon="-0.61334">
        <ele>280.0859375</ele>
      </trkpt>
      <trkpt lat="48.96211" lon="-0.61367">
        <ele>281.8203125</ele>
      </trkpt>
      <trkpt lat="48.96227" lon="-0.6142">
        <ele>282.34375</ele>
      </trkpt>
      <trkpt lat="48.96286" lon="-0.61399">
        <ele>285.703125</ele>
      </trkpt>
      <trkpt lat="48.96379" lon="-0.61393">
        <ele>289.421875</ele>
      </trkpt>
      <trkpt lat="48.96546" lon="-0.61284">
        <ele>303.74609375</ele>
      </trkpt>
      <trkpt lat="48.96873" lon="-0.62993">
        <ele>342.1953125</ele>
      </trkpt>
      <trkpt lat="48.96929" lon="-0.62962">
        <ele>345.87109375</ele>
      </trkpt>
      <trkpt lat="48.96998" lon="-0.62966">
        <ele>348.015625</ele>
      </trkpt>
      <trkpt lat="48.97095" lon="-0.62983">
        <ele>347.06640625</ele>
      </trkpt>
      <trkpt lat="48.97264" lon="-0.62962">
        <ele>348.08984375</ele>
      </trkpt>
      <trkpt lat="48.973" lon="-0.62956">
        <ele>347.0859375</ele>
      </trkpt>
      <trkpt lat="48.97448" lon="-0.62855">
        <ele>340.74609375</ele>
      </trkpt>
      <trkpt lat="48.97467" lon="-0.62999">
        <ele>335.03125</ele>
      </trkpt>
      <trkpt lat="48.97512" lon="-0.6309">
        <ele>327.44921875</ele>
      </trkpt>
      <trkpt lat="48.97542" lon="-0.63127">
        <ele>322.21484375</ele>
      </trkpt>
      <trkpt lat="48.97626" lon="-0.63254">
        <ele>304.18359375</ele>
      </trkpt>
      <trkpt lat="48.97635" lon="-0.63279">
        <ele>300.22265625</ele>
      </trkpt>
      <trkpt lat="48.97649" lon="-0.63359">
        <ele>293.3125</ele>
      </trkpt>
      <trkpt lat="48.97762" lon="-0.63496">
        <ele>273.61328125</ele>
      </trkpt>
      <trkpt lat="48.97853" lon="-0.63562">
        <ele>261.26953125</ele>
      </trkpt>
      <trkpt lat="48.97906" lon="-0.63496">
        <ele>262.8671875</ele>
      </trkpt>
      <trkpt lat="48.98157" lon="-0.634">
        <ele>252.18359375</ele>
      </trkpt>
      <trkpt lat="48.98463" lon="-0.63133">
        <ele>243.7109375</ele>
      </trkpt>
      <trkpt lat="48.98483" lon="-0.63096">
        <ele>242.34765625</ele>
      </trkpt>
      <trkpt lat="48.98488" lon="-0.6302">
        <ele>242.921875</ele>
      </trkpt>
      <trkpt lat="48.98471" lon="-0.62995">
        <ele>243.6875</ele>
      </trkpt>
      <trkpt lat="48.98459" lon="-0.6297">
        <ele>244.125</ele>
      </trkpt>
      <trkpt lat="48.98449" lon="-0.62901">
        <ele>245.328125</ele>
      </trkpt>
      <trkpt lat="48.98405" lon="-0.62818">
        <ele>247.78125</ele>
      </trkpt>
      <trkpt lat="48.98445" lon="-0.62471">
        <ele>253.53515625</ele>
      </trkpt>
      <trkpt lat="48.98379" lon="-0.61773">
        <ele>260.58984375</ele>
      </trkpt>
      <trkpt lat="48.98468" lon="-0.61541">
        <ele>255.44140625</ele>
      </trkpt>
      <trkpt lat="48.9849" lon="-0.61492">
        <ele>255.9296875</ele>
      </trkpt>
      <trkpt lat="48.98538" lon="-0.61471">
        <ele>257.07421875</ele>
      </trkpt>
      <trkpt lat="48.98565" lon="-0.615">
        <ele>258.00390625</ele>
      </trkpt>
      <trkpt lat="48.98603" lon="-0.61498">
        <ele>260.48828125</ele>
      </trkpt>
      <trkpt lat="48.98658" lon="-0.61607">
        <ele>260.27734375</ele>
      </trkpt>
      <trkpt lat="48.9872" lon="-0.6158">
        <ele>267.15234375</ele>
      </trkpt>
      <trkpt lat="48.98806" lon="-0.61568">
        <ele>275.1171875</ele>
      </trkpt>
      <trkpt lat="48.98923" lon="-0.61524">
        <ele>283.53515625</ele>
      </trkpt>
      <trkpt lat="48.99019" lon="-0.61529">
        <ele>288.01171875</ele>
      </trkpt>
      <trkpt lat="48.99038" lon="-0.61541">
        <ele>288.8203125</ele>
      </trkpt>
      <trkpt lat="48.99165" lon="-0.61551">
        <ele>294.33203125</ele>
      </trkpt>
      <trkpt lat="48.9921" lon="-0.61582">
        <ele>294.5703125</ele>
      </trkpt>
      <trkpt lat="48.99265" lon="-0.61627">
        <ele>294.35546875</ele>
      </trkpt>
      <trkpt lat="48.99329" lon="-0.61656">
        <ele>292.98046875</ele>
      </trkpt>
      <trkpt lat="48.99403" lon="-0.6166">
        <ele>288.94921875</ele>
      </trkpt>
      <trkpt lat="48.9943" lon="-0.61642">
        <ele>282.94140625</ele>
      </trkpt>
      <trkpt lat="48.99498" lon="-0.61654">
        <ele>270.9921875</ele>
      </trkpt>
      <trkpt lat="48.99525" lon="-0.61666">
        <ele>265.58203125</ele>
      </trkpt>
      <trkpt lat="48.99725" lon="-0.61777">
        <ele>230.1171875</ele>
      </trkpt>
      <trkpt lat="48.99788" lon="-0.61793">
        <ele>222.3125</ele>
      </trkpt>
      <trkpt lat="49.0011" lon="-0.61853">
        <ele>203.5546875</ele>
      </trkpt>
      <trkpt lat="49.00117" lon="-0.619">
        <ele>203.3125</ele>
      </trkpt>
      <trkpt lat="49.0013" lon="-0.61933">
        <ele>202.35546875</ele>
      </trkpt>
      <trkpt lat="49.00158" lon="-0.62039">
        <ele>199.4375</ele>
      </trkpt>
      <trkpt lat="49.00196" lon="-0.62228">
        <ele>191.94140625</ele>
      </trkpt>
      <trkpt lat="49.00204" lon="-0.62306">
        <ele>188.19921875</ele>
      </trkpt>
      <trkpt lat="49.00195" lon="-0.62462">
        <ele>183.51171875</ele>
      </trkpt>
      <trkpt lat="49.00333" lon="-0.62499">
        <ele>185.31640625</ele>
      </trkpt>
      <trkpt lat="49.00366" lon="-0.62322">
        <ele>188.20703125</ele>
      </trkpt>
      <trkpt lat="49.00498" lon="-0.6231">
        <ele>182.73046875</ele>
      </trkpt>
      <trkpt lat="49.00542" lon="-0.62277">
        <ele>179.8046875</ele>
      </trkpt>
      <trkpt lat="49.00558" lon="-0.62228">
        <ele>179.26953125</ele>
      </trkpt>
      <trkpt lat="49.00592" lon="-0.62207">
        <ele>176.984375</ele>
      </trkpt>
      <trkpt lat="49.00619" lon="-0.62187">
        <ele>175.390625</ele>
      </trkpt>
      <trkpt lat="49.00641" lon="-0.62164">
        <ele>174.62890625</ele>
      </trkpt>
      <trkpt lat="49.00852" lon="-0.62443">
        <ele>154.13671875</ele>
      </trkpt>
      <trkpt lat="49.00938" lon="-0.624">
        <ele>151.7265625</ele>
      </trkpt>
      <trkpt lat="49.00978" lon="-0.62413">
        <ele>148.55859375</ele>
      </trkpt>
      <trkpt lat="49.01029" lon="-0.62388">
        <ele>147.1328125</ele>
      </trkpt>
      <trkpt lat="49.01054" lon="-0.62331">
        <ele>148.5</ele>
      </trkpt>
      <trkpt lat="49.01031" lon="-0.62275">
        <ele>151.19140625</ele>
      </trkpt>
      <trkpt lat="49.00986" lon="-0.6225">
        <ele>154.26953125</ele>
      </trkpt>
      <trkpt lat="49.00942" lon="-0.62222">
        <ele>157.65625</ele>
      </trkpt>
      <trkpt lat="49.00976" lon="-0.62199">
        <ele>156.01171875</ele>
      </trkpt>
      <trkpt lat="49.01109" lon="-0.62137">
        <ele>150.01171875</ele>
      </trkpt>
      <trkpt lat="49.01174" lon="-0.62125">
        <ele>146.3671875</ele>
      </trkpt>
      <trkpt lat="49.01195" lon="-0.62086">
        <ele>145.14453125</ele>
      </trkpt>
      <trkpt lat="49.0125" lon="-0.62006">
        <ele>142.0078125</ele>
      </trkpt>
      <trkpt lat="49.01312" lon="-0.61969">
        <ele>143.13671875</ele>
      </trkpt>
      <trkpt lat="49.01357" lon="-0.61975">
        <ele>143.7265625</ele>
      </trkpt>
      <trkpt lat="49.01436" lon="-0.62066">
        <ele>141.25</ele>
      </trkpt>
      <trkpt lat="49.01575" lon="-0.62176">
        <ele>135.84765625</ele>
      </trkpt>
      <trkpt lat="49.01695" lon="-0.62296">
        <ele>130.234375</ele>
      </trkpt>
      <trkpt lat="49.01754" lon="-0.62298">
        <ele>131.58984375</ele>
      </trkpt>
      <trkpt lat="49.01799" lon="-0.62265">
        <ele>134.4296875</ele>
      </trkpt>
      <trkpt lat="49.01834" lon="-0.62253">
        <ele>136.23828125</ele>
      </trkpt>
      <trkpt lat="49.01851" lon="-0.62261">
        <ele>136.8359375</ele>
      </trkpt>
      <trkpt lat="49.01858" lon="-0.62331">
        <ele>135.11328125</ele>
      </trkpt>
      <trkpt lat="49.01885" lon="-0.62419">
        <ele>132.90625</ele>
      </trkpt>
      <trkpt lat="49.0198" lon="-0.62466">
        <ele>134.66796875</ele>
      </trkpt>
      <trkpt lat="49.01992" lon="-0.62534">
        <ele>133.1328125</ele>
      </trkpt>
      <trkpt lat="49.01991" lon="-0.62618">
        <ele>131.984375</ele>
      </trkpt>
      <trkpt lat="49.02041" lon="-0.62634">
        <ele>133.90234375</ele>
      </trkpt>
      <trkpt lat="49.02053" lon="-0.62616">
        <ele>134.81640625</ele>
      </trkpt>
      <trkpt lat="49.02149" lon="-0.62589">
        <ele>139.99609375</ele>
      </trkpt>
      <trkpt lat="49.02196" lon="-0.62597">
        <ele>141.15234375</ele>
      </trkpt>
      <trkpt lat="49.02359" lon="-0.62489">
        <ele>142.17578125</ele>
      </trkpt>
      <trkpt lat="49.02372" lon="-0.62443">
        <ele>142.8828125</ele>
      </trkpt>
      <trkpt lat="49.02352" lon="-0.62214">
        <ele>145</ele>
      </trkpt>
      <trkpt lat="49.02363" lon="-0.62187">
        <ele>145</ele>
      </trkpt>
      <trkpt lat="49.02356" lon="-0.6216">
        <ele>144.921875</ele>
      </trkpt>
      <trkpt lat="49.0236" lon="-0.61821">
        <ele>146</ele>
      </trkpt>
      <trkpt lat="49.02349" lon="-0.61776">
        <ele>146</ele>
      </trkpt>
      <trkpt lat="49.02391" lon="-0.61774">
        <ele>146</ele>
      </trkpt>
      <trkpt lat="49.0243" lon="-0.6179">
        <ele>146</ele>
      </trkpt>
      <trkpt lat="49.02499" lon="-0.61838">
        <ele>146</ele>
      </trkpt>
      <trkpt lat="49.02577" lon="-0.61862">
        <ele>146.8125</ele>
      </trkpt>
      <trkpt lat="49.027" lon="-0.61852">
        <ele>146.98828125</ele>
      </trkpt>
      <trkpt lat="49.02816" lon="-0.6186">
        <ele>146.84765625</ele>
      </trkpt>
      <trkpt lat="49.0287" lon="-0.61875">
        <ele>146.56640625</ele>
      </trkpt>
      <trkpt lat="49.03017" lon="-0.61877">
        <ele>148.08203125</ele>
      </trkpt>
      <trkpt lat="49.03056" lon="-0.61883">
        <ele>148.7890625</ele>
      </trkpt>
      <trkpt lat="49.03065" lon="-0.61879">
        <ele>148.93359375</ele>
      </trkpt>
      <trkpt lat="49.03094" lon="-0.61907">
        <ele>149.46875</ele>
      </trkpt>
      <trkpt lat="49.03168" lon="-0.61967">
        <ele>151.60546875</ele>
      </trkpt>
      <trkpt lat="49.03236" lon="-0.62795">
        <ele>154.96484375</ele>
      </trkpt>
      <trkpt lat="49.03032" lon="-0.6285">
        <ele>145.05859375</ele>
      </trkpt>
      <trkpt lat="49.03013" lon="-0.62871">
        <ele>143.2890625</ele>
      </trkpt>
      <trkpt lat="49.02973" lon="-0.62994">
        <ele>138.546875</ele>
      </trkpt>
      <trkpt lat="49.02963" lon="-0.63214">
        <ele>125.3984375</ele>
      </trkpt>
      <trkpt lat="49.02953" lon="-0.63234">
        <ele>123.6640625</ele>
      </trkpt>
      <trkpt lat="49.0319" lon="-0.63286">
        <ele>117.328125</ele>
      </trkpt>
      <trkpt lat="49.03263" lon="-0.63275">
        <ele>117.70703125</ele>
      </trkpt>
      <trkpt lat="49.03364" lon="-0.6318">
        <ele>122.890625</ele>
      </trkpt>
      <trkpt lat="49.03422" lon="-0.62935">
        <ele>133.36328125</ele>
      </trkpt>
      <trkpt lat="49.03497" lon="-0.62711">
        <ele>144.25</ele>
      </trkpt>
      <trkpt lat="49.03536" lon="-0.62685">
        <ele>146.65234375</ele>
      </trkpt>
      <trkpt lat="49.03616" lon="-0.62683">
        <ele>149.90234375</ele>
      </trkpt>
      <trkpt lat="49.03696" lon="-0.62644">
        <ele>150.49609375</ele>
      </trkpt>
      <trkpt lat="49.03809" lon="-0.62564">
        <ele>150.046875</ele>
      </trkpt>
      <trkpt lat="49.03878" lon="-0.62453">
        <ele>148.484375</ele>
      </trkpt>
      <trkpt lat="49.03833" lon="-0.62428">
        <ele>150.05078125</ele>
      </trkpt>
      <trkpt lat="49.03816" lon="-0.62405">
        <ele>151.06640625</ele>
      </trkpt>
      <trkpt lat="49.03717" lon="-0.61995">
        <ele>156.59375</ele>
      </trkpt>
      <trkpt lat="49.03608" lon="-0.61718">
        <ele>148.66015625</ele>
      </trkpt>
      <trkpt lat="49.03581" lon="-0.6157">
        <ele>139.82421875</ele>
      </trkpt>
      <trkpt lat="49.03565" lon="-0.61385">
        <ele>130.2109375</ele>
      </trkpt>
      <trkpt lat="49.03517" lon="-0.61383">
        <ele>130.140625</ele>
      </trkpt>
      <trkpt lat="49.03517" lon="-0.61354">
        <ele>129.08984375</ele>
      </trkpt>
      <trkpt lat="49.03525" lon="-0.61177">
        <ele>122.5859375</ele>
      </trkpt>
      <trkpt lat="49.03544" lon="-0.61103">
        <ele>119.11328125</ele>
      </trkpt>
      <trkpt lat="49.0354" lon="-0.61066">
        <ele>117.41796875</ele>
      </trkpt>
      <trkpt lat="49.03513" lon="-0.61052">
        <ele>117.39453125</ele>
      </trkpt>
      <trkpt lat="49.03553" lon="-0.61023">
        <ele>116.625</ele>
      </trkpt>
      <trkpt lat="49.03563" lon="-0.6104">
        <ele>116.8671875</ele>
      </trkpt>
      <trkpt lat="49.03591" lon="-0.60974">
        <ele>116.69140625</ele>
      </trkpt>
      <trkpt lat="49.03635" lon="-0.60931">
        <ele>115.87109375</ele>
      </trkpt>
      <trkpt lat="49.03673" lon="-0.60931">
        <ele>115</ele>
      </trkpt>
      <trkpt lat="49.03868" lon="-0.60832">
        <ele>113.38671875</ele>
      </trkpt>
      <trkpt lat="49.03987" lon="-0.60703">
        <ele>123.73046875</ele>
      </trkpt>
      <trkpt lat="49.04093" lon="-0.60553">
        <ele>130.1953125</ele>
      </trkpt>
      <trkpt lat="49.04183" lon="-0.60475">
        <ele>135.57421875</ele>
      </trkpt>
      <trkpt lat="49.04255" lon="-0.60325">
        <ele>138.67578125</ele>
      </trkpt>
      <trkpt lat="49.04276" lon="-0.60208">
        <ele>140.55078125</ele>
      </trkpt>
      <trkpt lat="49.04305" lon="-0.60163">
        <ele>139.234375</ele>
      </trkpt>
      <trkpt lat="49.04317" lon="-0.60146">
        <ele>138.2890625</ele>
      </trkpt>
      <trkpt lat="49.04322" lon="-0.59955">
        <ele>138.89453125</ele>
      </trkpt>
      <trkpt lat="49.04332" lon="-0.59914">
        <ele>137.70703125</ele>
      </trkpt>
      <trkpt lat="49.04314" lon="-0.59863">
        <ele>140.2734375</ele>
      </trkpt>
      <trkpt lat="49.04301" lon="-0.59816">
        <ele>142.984375</ele>
      </trkpt>
      <trkpt lat="49.0433" lon="-0.59709">
        <ele>144.46484375</ele>
      </trkpt>
      <trkpt lat="49.04359" lon="-0.59495">
        <ele>148.4375</ele>
      </trkpt>
      <trkpt lat="49.04376" lon="-0.59423">
        <ele>148.3984375</ele>
      </trkpt>
      <trkpt lat="49.04438" lon="-0.59306">
        <ele>148.125</ele>
      </trkpt>
      <trkpt lat="49.04473" lon="-0.59312">
        <ele>148.3515625</ele>
      </trkpt>
      <trkpt lat="49.04493" lon="-0.5931">
        <ele>149.11328125</ele>
      </trkpt>
      <trkpt lat="49.04488" lon="-0.59193">
        <ele>153.2890625</ele>
      </trkpt>
      <trkpt lat="49.04497" lon="-0.59109">
        <ele>155.890625</ele>
      </trkpt>
      <trkpt lat="49.04541" lon="-0.59014">
        <ele>158.51171875</ele>
      </trkpt>
      <trkpt lat="49.04675" lon="-0.58833">
        <ele>162.93359375</ele>
      </trkpt>
      <trkpt lat="49.04762" lon="-0.58722">
        <ele>166.83984375</ele>
      </trkpt>
      <trkpt lat="49.04811" lon="-0.58683">
        <ele>167.74609375</ele>
      </trkpt>
      <trkpt lat="49.04968" lon="-0.5849">
        <ele>168.6875</ele>
      </trkpt>
      <trkpt lat="49.04874" lon="-0.58231">
        <ele>160.21875</ele>
      </trkpt>
      <trkpt lat="49.04947" lon="-0.58188">
        <ele>160.0546875</ele>
      </trkpt>
      <trkpt lat="49.05045" lon="-0.58184">
        <ele>161.4609375</ele>
      </trkpt>
      <trkpt lat="49.05074" lon="-0.58182">
        <ele>161.98046875</ele>
      </trkpt>
      <trkpt lat="49.05105" lon="-0.58155">
        <ele>161.625</ele>
      </trkpt>
      <trkpt lat="49.05109" lon="-0.58139">
        <ele>160.92578125</ele>
      </trkpt>
      <trkpt lat="49.05122" lon="-0.58128">
        <ele>160.71484375</ele>
      </trkpt>
      <trkpt lat="49.05125" lon="-0.58102">
        <ele>158.96484375</ele>
      </trkpt>
      <trkpt lat="49.05115" lon="-0.58075">
        <ele>156.828125</ele>
      </trkpt>
      <trkpt lat="49.05099" lon="-0.58048">
        <ele>155.484375</ele>
      </trkpt>
      <trkpt lat="49.05153" lon="-0.57972">
        <ele>152.31640625</ele>
      </trkpt>
      <trkpt lat="49.05203" lon="-0.57884">
        <ele>151.0859375</ele>
      </trkpt>
      <trkpt lat="49.05273" lon="-0.57796">
        <ele>148.0390625</ele>
      </trkpt>
      <trkpt lat="49.05323" lon="-0.57724">
        <ele>147.453125</ele>
      </trkpt>
      <trkpt lat="49.05351" lon="-0.57664">
        <ele>146.203125</ele>
      </trkpt>
      <trkpt lat="49.05402" lon="-0.57556">
        <ele>142.76171875</ele>
      </trkpt>
      <trkpt lat="49.0544" lon="-0.57477">
        <ele>141.45703125</ele>
      </trkpt>
      <trkpt lat="49.05495" lon="-0.57438">
        <ele>140.0859375</ele>
      </trkpt>
      <trkpt lat="49.05587" lon="-0.57346">
        <ele>138.75</ele>
      </trkpt>
      <trkpt lat="49.05584" lon="-0.5733">
        <ele>138.8125</ele>
      </trkpt>
      <trkpt lat="49.05651" lon="-0.57243">
        <ele>137.9140625</ele>
      </trkpt>
      <trkpt lat="49.05778" lon="-0.57132">
        <ele>133.99609375</ele>
      </trkpt>
      <trkpt lat="49.05911" lon="-0.57007">
        <ele>130.875</ele>
      </trkpt>
      <trkpt lat="49.05921" lon="-0.56984">
        <ele>130.56640625</ele>
      </trkpt>
      <trkpt lat="49.05951" lon="-0.56933">
        <ele>128.79296875</ele>
      </trkpt>
      <trkpt lat="49.06008" lon="-0.56892">
        <ele>125.859375</ele>
      </trkpt>
      <trkpt lat="49.06065" lon="-0.56892">
        <ele>126.68359375</ele>
      </trkpt>
      <trkpt lat="49.06056" lon="-0.56911">
        <ele>127.52734375</ele>
      </trkpt>
      <trkpt lat="49.06057" lon="-0.56995">
        <ele>133.1171875</ele>
      </trkpt>
      <trkpt lat="49.06104" lon="-0.57141">
        <ele>144.01953125</ele>
      </trkpt>
      <trkpt lat="49.06127" lon="-0.57165">
        <ele>145.3125</ele>
      </trkpt>
      <trkpt lat="49.06085" lon="-0.57213">
        <ele>146.58984375</ele>
      </trkpt>
      <trkpt lat="49.06069" lon="-0.57251">
        <ele>148.14453125</ele>
      </trkpt>
      <trkpt lat="49.0608" lon="-0.57291">
        <ele>149.0859375</ele>
      </trkpt>
      <trkpt lat="49.06111" lon="-0.57249">
        <ele>148.18359375</ele>
      </trkpt>
      <trkpt lat="49.06166" lon="-0.57198">
        <ele>147.171875</ele>
      </trkpt>
      <trkpt lat="49.06201" lon="-0.57141">
        <ele>146.59765625</ele>
      </trkpt>
      <trkpt lat="49.06266" lon="-0.57056">
        <ele>145.21875</ele>
      </trkpt>
      <trkpt lat="49.06308" lon="-0.56982">
        <ele>143.5859375</ele>
      </trkpt>
      <trkpt lat="49.06327" lon="-0.56946">
        <ele>142.5546875</ele>
      </trkpt>
      <trkpt lat="49.06354" lon="-0.56867">
        <ele>141.08203125</ele>
      </trkpt>
      <trkpt lat="49.064" lon="-0.56746">
        <ele>137.09375</ele>
      </trkpt>
      <trkpt lat="49.06439" lon="-0.56539">
        <ele>130.35546875</ele>
      </trkpt>
      <trkpt lat="49.06477" lon="-0.56403">
        <ele>127.5078125</ele>
      </trkpt>
      <trkpt lat="49.0651" lon="-0.56315">
        <ele>125.56640625</ele>
      </trkpt>
      <trkpt lat="49.06552" lon="-0.56147">
        <ele>123.26953125</ele>
      </trkpt>
      <trkpt lat="49.06568" lon="-0.56095">
        <ele>122.3984375</ele>
      </trkpt>
      <trkpt lat="49.06586" lon="-0.56005">
        <ele>121.22265625</ele>
      </trkpt>
      <trkpt lat="49.06602" lon="-0.55912">
        <ele>119.32421875</ele>
      </trkpt>
      <trkpt lat="49.06819" lon="-0.55943">
        <ele>122.03125</ele>
      </trkpt>
      <trkpt lat="49.06857" lon="-0.55956">
        <ele>121.828125</ele>
      </trkpt>
      <trkpt lat="49.06902" lon="-0.56013">
        <ele>121.93359375</ele>
      </trkpt>
      <trkpt lat="49.0706" lon="-0.56169">
        <ele>117.6171875</ele>
      </trkpt>
      <trkpt lat="49.07102" lon="-0.56194">
        <ele>117.5703125</ele>
      </trkpt>
      <trkpt lat="49.07165" lon="-0.56286">
        <ele>116.62890625</ele>
      </trkpt>
      <trkpt lat="49.07221" lon="-0.56276">
        <ele>110.38671875</ele>
      </trkpt>
      <trkpt lat="49.07264" lon="-0.56272">
        <ele>102.05859375</ele>
      </trkpt>
      <trkpt lat="49.0729" lon="-0.56245">
        <ele>97.00390625</ele>
      </trkpt>
      <trkpt lat="49.0731" lon="-0.56245">
        <ele>97.0390625</ele>
      </trkpt>
      <trkpt lat="49.07336" lon="-0.56221">
        <ele>95.62109375</ele>
      </trkpt>
      <trkpt lat="49.0737" lon="-0.56221">
        <ele>99.55859375</ele>
      </trkpt>
      <trkpt lat="49.0738" lon="-0.56212">
        <ele>100.21484375</ele>
      </trkpt>
      <trkpt lat="49.07392" lon="-0.56136">
        <ele>91.25</ele>
      </trkpt>
      <trkpt lat="49.07546" lon="-0.56245">
        <ele>103.43359375</ele>
      </trkpt>
      <trkpt lat="49.0756" lon="-0.56301">
        <ele>106.48046875</ele>
      </trkpt>
      <trkpt lat="49.0769" lon="-0.55999">
        <ele>84.3046875</ele>
      </trkpt>
      <trkpt lat="49.07744" lon="-0.56091">
        <ele>88.8046875</ele>
      </trkpt>
      <trkpt lat="49.07759" lon="-0.56118">
        <ele>90.58203125</ele>
      </trkpt>
      <trkpt lat="49.07756" lon="-0.5626">
        <ele>97.91015625</ele>
      </trkpt>
      <trkpt lat="49.07899" lon="-0.56321">
        <ele>99.3828125</ele>
      </trkpt>
      <trkpt lat="49.07977" lon="-0.56379">
        <ele>99.02734375</ele>
      </trkpt>
      <trkpt lat="49.08115" lon="-0.56485">
        <ele>93.46875</ele>
      </trkpt>
      <trkpt lat="49.08147" lon="-0.56512">
        <ele>91.01953125</ele>
      </trkpt>
      <trkpt lat="49.08158" lon="-0.56527">
        <ele>90.36328125</ele>
      </trkpt>
      <trkpt lat="49.08148" lon="-0.56584">
        <ele>91.19921875</ele>
      </trkpt>
      <trkpt lat="49.08136" lon="-0.56607">
        <ele>91.66015625</ele>
      </trkpt>
      <trkpt lat="49.08046" lon="-0.56705">
        <ele>95.0625</ele>
      </trkpt>
      <trkpt lat="49.07991" lon="-0.56878">
        <ele>98.38671875</ele>
      </trkpt>
      <trkpt lat="49.07937" lon="-0.57005">
        <ele>99.96484375</ele>
      </trkpt>
      <trkpt lat="49.07907" lon="-0.57097">
        <ele>100.1953125</ele>
      </trkpt>
      <trkpt lat="49.07869" lon="-0.57194">
        <ele>101.58984375</ele>
      </trkpt>
      <trkpt lat="49.07848" lon="-0.57254">
        <ele>101.28125</ele>
      </trkpt>
      <trkpt lat="49.07806" lon="-0.5735">
        <ele>102.23828125</ele>
      </trkpt>
      <trkpt lat="49.07732" lon="-0.57535">
        <ele>105.26171875</ele>
      </trkpt>
      <trkpt lat="49.07731" lon="-0.57564">
        <ele>105.7890625</ele>
      </trkpt>
      <trkpt lat="49.0774" lon="-0.57619">
        <ele>107.02734375</ele>
      </trkpt>
      <trkpt lat="49.07764" lon="-0.57623">
        <ele>107.9140625</ele>
      </trkpt>
      <trkpt lat="49.07825" lon="-0.57669">
        <ele>109.66796875</ele>
      </trkpt>
      <trkpt lat="49.07842" lon="-0.57676">
        <ele>109.80859375</ele>
      </trkpt>
      <trkpt lat="49.07851" lon="-0.57688">
        <ele>110.34375</ele>
      </trkpt>
      <trkpt lat="49.07962" lon="-0.57768">
        <ele>117.8828125</ele>
      </trkpt>
      <trkpt lat="49.08225" lon="-0.57955">
        <ele>130.8515625</ele>
      </trkpt>
      <trkpt lat="49.0816" lon="-0.58164">
        <ele>132.29296875</ele>
      </trkpt>
      <trkpt lat="49.08103" lon="-0.58318">
        <ele>134.80078125</ele>
      </trkpt>
      <trkpt lat="49.08083" lon="-0.58435">
        <ele>135.46484375</ele>
      </trkpt>
      <trkpt lat="49.07966" lon="-0.58879">
        <ele>137</ele>
      </trkpt>
      <trkpt lat="49.08043" lon="-0.58908">
        <ele>137</ele>
      </trkpt>
      <trkpt lat="49.08206" lon="-0.58797">
        <ele>135.46484375</ele>
      </trkpt>
      <trkpt lat="49.08269" lon="-0.5877">
        <ele>133.6484375</ele>
      </trkpt>
      <trkpt lat="49.0845" lon="-0.58787">
        <ele>121.90234375</ele>
      </trkpt>
      <trkpt lat="49.08635" lon="-0.58856">
        <ele>100.42578125</ele>
      </trkpt>
      <trkpt lat="49.08675" lon="-0.58879">
        <ele>94.7109375</ele>
      </trkpt>
      <trkpt lat="49.08717" lon="-0.58949">
        <ele>83.8828125</ele>
      </trkpt>
      <trkpt lat="49.08731" lon="-0.58951">
        <ele>82.04296875</ele>
      </trkpt>
      <trkpt lat="49.08774" lon="-0.58912">
        <ele>77.2265625</ele>
      </trkpt>
      <trkpt lat="49.08811" lon="-0.5886">
        <ele>73.78515625</ele>
      </trkpt>
      <trkpt lat="49.0884" lon="-0.58842">
        <ele>70.5546875</ele>
      </trkpt>
      <trkpt lat="49.08915" lon="-0.58867">
        <ele>70.8828125</ele>
      </trkpt>
      <trkpt lat="49.08979" lon="-0.58838">
        <ele>76.34375</ele>
      </trkpt>
      <trkpt lat="49.08992" lon="-0.58815">
        <ele>76.77734375</ele>
      </trkpt>
      <trkpt lat="49.09032" lon="-0.58795">
        <ele>80.50390625</ele>
      </trkpt>
      <trkpt lat="49.09089" lon="-0.58793">
        <ele>86.1328125</ele>
      </trkpt>
      <trkpt lat="49.09193" lon="-0.58799">
        <ele>90.703125</ele>
      </trkpt>
      <trkpt lat="49.0922" lon="-0.58799">
        <ele>91.6328125</ele>
      </trkpt>
      <trkpt lat="49.09236" lon="-0.58778">
        <ele>93.15234375</ele>
      </trkpt>
      <trkpt lat="49.09226" lon="-0.58754">
        <ele>92.4140625</ele>
      </trkpt>
      <trkpt lat="49.09224" lon="-0.58715">
        <ele>92.20703125</ele>
      </trkpt>
      <trkpt lat="49.09253" lon="-0.58651">
        <ele>95.16796875</ele>
      </trkpt>
      <trkpt lat="49.0926" lon="-0.58649">
        <ele>95.984375</ele>
      </trkpt>
      <trkpt lat="49.09321" lon="-0.587">
        <ele>103.92578125</ele>
      </trkpt>
      <trkpt lat="49.09352" lon="-0.58702">
        <ele>106.66796875</ele>
      </trkpt>
      <trkpt lat="49.09367" lon="-0.58735">
        <ele>108.1328125</ele>
      </trkpt>
      <trkpt lat="49.09398" lon="-0.58772">
        <ele>111.06640625</ele>
      </trkpt>
      <trkpt lat="49.09552" lon="-0.58919">
        <ele>123.16796875</ele>
      </trkpt>
      <trkpt lat="49.09768" lon="-0.59118">
        <ele>135.35546875</ele>
      </trkpt>
      <trkpt lat="49.09861" lon="-0.59159">
        <ele>133.3203125</ele>
      </trkpt>
      <trkpt lat="49.09986" lon="-0.59151">
        <ele>124.1953125</ele>
      </trkpt>
      <trkpt lat="49.10059" lon="-0.59309">
        <ele>131.71875</ele>
      </trkpt>
      <trkpt lat="49.10036" lon="-0.594">
        <ele>137.50390625</ele>
      </trkpt>
      <trkpt lat="49.10064" lon="-0.59603">
        <ele>146.99609375</ele>
      </trkpt>
      <trkpt lat="49.1006" lon="-0.59845">
        <ele>151.921875</ele>
      </trkpt>
      <trkpt lat="49.10109" lon="-0.5987">
        <ele>149.4140625</ele>
      </trkpt>
      <trkpt lat="49.10082" lon="-0.60042">
        <ele>158.3046875</ele>
      </trkpt>
      <trkpt lat="49.10048" lon="-0.60147">
        <ele>162.51953125</ele>
      </trkpt>
      <trkpt lat="49.10183" lon="-0.60396">
        <ele>166.859375</ele>
      </trkpt>
      <trkpt lat="49.10264" lon="-0.60523">
        <ele>165.40234375</ele>
      </trkpt>
      <trkpt lat="49.10324" lon="-0.60751">
        <ele>165.3671875</ele>
      </trkpt>
      <trkpt lat="49.10426" lon="-0.60539">
        <ele>161.4765625</ele>
      </trkpt>
      <trkpt lat="49.10444" lon="-0.60537">
        <ele>161.1640625</ele>
      </trkpt>
      <trkpt lat="49.10577" lon="-0.60422">
        <ele>159.81640625</ele>
      </trkpt>
      <trkpt lat="49.10612" lon="-0.60357">
        <ele>159.01171875</ele>
      </trkpt>
      <trkpt lat="49.10655" lon="-0.6033">
        <ele>157.30078125</ele>
      </trkpt>
      <trkpt lat="49.10677" lon="-0.6032">
        <ele>156.37109375</ele>
      </trkpt>
      <trkpt lat="49.10724" lon="-0.60209">
        <ele>155.734375</ele>
      </trkpt>
      <trkpt lat="49.10755" lon="-0.60281">
        <ele>154.10546875</ele>
      </trkpt>
      <trkpt lat="49.10923" lon="-0.60205">
        <ele>150</ele>
      </trkpt>
      <trkpt lat="49.11037" lon="-0.60139">
        <ele>149.48046875</ele>
      </trkpt>
      <trkpt lat="49.11186" lon="-0.60018">
        <ele>145.984375</ele>
      </trkpt>
      <trkpt lat="49.11324" lon="-0.59835">
        <ele>144.3125</ele>
      </trkpt>
      <trkpt lat="49.11378" lon="-0.59765">
        <ele>143.6171875</ele>
      </trkpt>
      <trkpt lat="49.11395" lon="-0.59751">
        <ele>143.1953125</ele>
      </trkpt>
      <trkpt lat="49.11443" lon="-0.59784">
        <ele>143.58203125</ele>
      </trkpt>
      <trkpt lat="49.1154" lon="-0.59845">
        <ele>144.86328125</ele>
      </trkpt>
      <trkpt lat="49.11631" lon="-0.59767">
        <ele>143.35546875</ele>
      </trkpt>
      <trkpt lat="49.11707" lon="-0.59763">
        <ele>143</ele>
      </trkpt>
      <trkpt lat="49.11732" lon="-0.59718">
        <ele>142.59765625</ele>
      </trkpt>
      <trkpt lat="49.11844" lon="-0.59662">
        <ele>142.53125</ele>
      </trkpt>
      <trkpt lat="49.1203" lon="-0.59541">
        <ele>140.59765625</ele>
      </trkpt>
      <trkpt lat="49.12046" lon="-0.5995">
        <ele>140.61328125</ele>
      </trkpt>
      <trkpt lat="49.12302" lon="-0.59817">
        <ele>138.6953125</ele>
      </trkpt>
      <trkpt lat="49.12315" lon="-0.59798">
        <ele>138.453125</ele>
      </trkpt>
      <trkpt lat="49.12445" lon="-0.59771">
        <ele>137</ele>
      </trkpt>
      <trkpt lat="49.12526" lon="-0.60316">
        <ele>127.875</ele>
      </trkpt>
      <trkpt lat="49.12565" lon="-0.605">
        <ele>124.37890625</ele>
      </trkpt>
      <trkpt lat="49.12561" lon="-0.60583">
        <ele>123.6328125</ele>
      </trkpt>
      <trkpt lat="49.12739" lon="-0.60468">
        <ele>126.90625</ele>
      </trkpt>
      <trkpt lat="49.12867" lon="-0.60424">
        <ele>128.34765625</ele>
      </trkpt>
      <trkpt lat="49.12852" lon="-0.60143">
        <ele>131.53515625</ele>
      </trkpt>
      <trkpt lat="49.12883" lon="-0.59736">
        <ele>134</ele>
      </trkpt>
      <trkpt lat="49.12956" lon="-0.59738">
        <ele>133.90625</ele>
      </trkpt>
      <trkpt lat="49.1299" lon="-0.59794">
        <ele>133.30078125</ele>
      </trkpt>
      <trkpt lat="49.13083" lon="-0.59839">
        <ele>133</ele>
      </trkpt>
      <trkpt lat="49.13336" lon="-0.59934">
        <ele>127.5859375</ele>
      </trkpt>
      <trkpt lat="49.13288" lon="-0.59627">
        <ele>129.9375</ele>
      </trkpt>
      <trkpt lat="49.13231" lon="-0.59328">
        <ele>130.95703125</ele>
      </trkpt>
      <trkpt lat="49.1332" lon="-0.59283">
        <ele>129.35546875</ele>
      </trkpt>
      <trkpt lat="49.13637" lon="-0.59075">
        <ele>125.65234375</ele>
      </trkpt>
      <trkpt lat="49.13623" lon="-0.58886">
        <ele>125.89453125</ele>
      </trkpt>
      <trkpt lat="49.13517" lon="-0.58564">
        <ele>122.80078125</ele>
      </trkpt>
      <trkpt lat="49.13502" lon="-0.58527">
        <ele>122.06640625</ele>
      </trkpt>
      <trkpt lat="49.1333" lon="-0.58268">
        <ele>118.28125</ele>
      </trkpt>
      <trkpt lat="49.13231" lon="-0.58328">
        <ele>120.91015625</ele>
      </trkpt>
      <trkpt lat="49.1321" lon="-0.58323">
        <ele>121.6875</ele>
      </trkpt>
      <trkpt lat="49.13173" lon="-0.58237">
        <ele>123</ele>
      </trkpt>
      <trkpt lat="49.13157" lon="-0.58208">
        <ele>123.2890625</ele>
      </trkpt>
      <trkpt lat="49.13038" lon="-0.579">
        <ele>121.92578125</ele>
      </trkpt>
      <trkpt lat="49.1294" lon="-0.57313">
        <ele>124.93359375</ele>
      </trkpt>
      <trkpt lat="49.12931" lon="-0.57284">
        <ele>125.53515625</ele>
      </trkpt>
      <trkpt lat="49.12996" lon="-0.57257">
        <ele>124.73828125</ele>
      </trkpt>
      <trkpt lat="49.13154" lon="-0.57186">
        <ele>122.01953125</ele>
      </trkpt>
      <trkpt lat="49.13166" lon="-0.57175">
        <ele>122.23046875</ele>
      </trkpt>
      <trkpt lat="49.13243" lon="-0.57264">
        <ele>118.2265625</ele>
      </trkpt>
      <trkpt lat="49.13235" lon="-0.56978">
        <ele>124</ele>
      </trkpt>
      <trkpt lat="49.13317" lon="-0.56939">
        <ele>124</ele>
      </trkpt>
      <trkpt lat="49.133" lon="-0.5674">
        <ele>124.72265625</ele>
      </trkpt>
      <trkpt lat="49.13441" lon="-0.56711">
        <ele>124</ele>
      </trkpt>
      <trkpt lat="49.13898" lon="-0.56534">
        <ele>120.8984375</ele>
      </trkpt>
      <trkpt lat="49.13997" lon="-0.56485">
        <ele>119</ele>
      </trkpt>
      <trkpt lat="49.14047" lon="-0.5645">
        <ele>118.25390625</ele>
      </trkpt>
      <trkpt lat="49.14082" lon="-0.56444">
        <ele>117.625</ele>
      </trkpt>
      <trkpt lat="49.14112" lon="-0.56448">
        <ele>117.08984375</ele>
      </trkpt>
      <trkpt lat="49.14138" lon="-0.56448">
        <ele>116.75</ele>
      </trkpt>
      <trkpt lat="49.14134" lon="-0.56393">
        <ele>117</ele>
      </trkpt>
      <trkpt lat="49.14241" lon="-0.56319">
        <ele>115.3984375</ele>
      </trkpt>
      <trkpt lat="49.14345" lon="-0.56255">
        <ele>113.890625</ele>
      </trkpt>
      <trkpt lat="49.14357" lon="-0.562">
        <ele>113.9296875</ele>
      </trkpt>
      <trkpt lat="49.1455" lon="-0.55808">
        <ele>118.8515625</ele>
      </trkpt>
      <trkpt lat="49.14648" lon="-0.55461">
        <ele>120</ele>
      </trkpt>
      <trkpt lat="49.14725" lon="-0.55114">
        <ele>119</ele>
      </trkpt>
      <trkpt lat="49.14796" lon="-0.5487">
        <ele>118</ele>
      </trkpt>
      <trkpt lat="49.14802" lon="-0.54821">
        <ele>118</ele>
      </trkpt>
      <trkpt lat="49.14779" lon="-0.54706">
        <ele>117</ele>
      </trkpt>
      <trkpt lat="49.1499" lon="-0.5448">
        <ele>116</ele>
      </trkpt>
      <trkpt lat="49.15063" lon="-0.54471">
        <ele>116</ele>
      </trkpt>
      <trkpt lat="49.15172" lon="-0.54317">
        <ele>114.2890625</ele>
      </trkpt>
      <trkpt lat="49.15242" lon="-0.54239">
        <ele>112.73828125</ele>
      </trkpt>
      <trkpt lat="49.15462" lon="-0.54013">
        <ele>108.5625</ele>
      </trkpt>
      <trkpt lat="49.15641" lon="-0.54194">
        <ele>105.5546875</ele>
      </trkpt>
      <trkpt lat="49.15648" lon="-0.54229">
        <ele>105.43359375</ele>
      </trkpt>
      <trkpt lat="49.15921" lon="-0.54685">
        <ele>101.51171875</ele>
      </trkpt>
      <trkpt lat="49.15975" lon="-0.5471">
        <ele>99.90234375</ele>
      </trkpt>
      <trkpt lat="49.16025" lon="-0.5487">
        <ele>99.546875</ele>
      </trkpt>
      <trkpt lat="49.16093" lon="-0.5497">
        <ele>98.859375</ele>
      </trkpt>
      <trkpt lat="49.16178" lon="-0.54942">
        <ele>96.875</ele>
      </trkpt>
      <trkpt lat="49.16176" lon="-0.55077">
        <ele>97.83203125</ele>
      </trkpt>
      <trkpt lat="49.16145" lon="-0.55463">
        <ele>98.96484375</ele>
      </trkpt>
      <trkpt lat="49.16134" lon="-0.55667">
        <ele>98.93359375</ele>
      </trkpt>
      <trkpt lat="49.16766" lon="-0.55624">
        <ele>93.84765625</ele>
      </trkpt>
      <trkpt lat="49.16956" lon="-0.5563">
        <ele>92.87109375</ele>
      </trkpt>
      <trkpt lat="49.17187" lon="-0.55583">
        <ele>93.109375</ele>
      </trkpt>
      <trkpt lat="49.17485" lon="-0.55523">
        <ele>94.65234375</ele>
      </trkpt>
      <trkpt lat="49.1765" lon="-0.55474">
        <ele>95.14453125</ele>
      </trkpt>
      <trkpt lat="49.18204" lon="-0.55355">
        <ele>93.6171875</ele>
      </trkpt>
      <trkpt lat="49.18192" lon="-0.55504">
        <ele>95.80078125</ele>
      </trkpt>
      <trkpt lat="49.18197" lon="-0.55673">
        <ele>97.86328125</ele>
      </trkpt>
      <trkpt lat="49.18359" lon="-0.55668">
        <ele>96.2421875</ele>
      </trkpt>
      <trkpt lat="49.18613" lon="-0.55672">
        <ele>94.70703125</ele>
      </trkpt>
      <trkpt lat="49.18589" lon="-0.56196">
        <ele>97.53515625</ele>
      </trkpt>
      <trkpt lat="49.1897" lon="-0.57383">
        <ele>95.1796875</ele>
      </trkpt>
      <trkpt lat="49.19007" lon="-0.5753">
        <ele>94.8671875</ele>
      </trkpt>
      <trkpt lat="49.19013" lon="-0.57596">
        <ele>94.625</ele>
      </trkpt>
      <trkpt lat="49.19019" lon="-0.57892">
        <ele>95.62890625</ele>
      </trkpt>
      <trkpt lat="49.19031" lon="-0.57919">
        <ele>95.58984375</ele>
      </trkpt>
      <trkpt lat="49.19189" lon="-0.58042">
        <ele>92.91796875</ele>
      </trkpt>
      <trkpt lat="49.19202" lon="-0.58142">
        <ele>92.3515625</ele>
      </trkpt>
      <trkpt lat="49.19205" lon="-0.58397">
        <ele>95.86328125</ele>
      </trkpt>
      <trkpt lat="49.19222" lon="-0.58639">
        <ele>98.0078125</ele>
      </trkpt>
      <trkpt lat="49.19256" lon="-0.5898">
        <ele>96.60546875</ele>
      </trkpt>
      <trkpt lat="49.19272" lon="-0.59036">
        <ele>95.3046875</ele>
      </trkpt>
      <trkpt lat="49.19295" lon="-0.59143">
        <ele>94.96875</ele>
      </trkpt>
      <trkpt lat="49.19291" lon="-0.59204">
        <ele>96.12890625</ele>
      </trkpt>
      <trkpt lat="49.19357" lon="-0.59456">
        <ele>98.53515625</ele>
      </trkpt>
      <trkpt lat="49.19403" lon="-0.5961">
        <ele>98.92578125</ele>
      </trkpt>
      <trkpt lat="49.19415" lon="-0.59624">
        <ele>98.94921875</ele>
      </trkpt>
      <trkpt lat="49.19446" lon="-0.59704">
        <ele>99.3359375</ele>
      </trkpt>
      <trkpt lat="49.19503" lon="-0.59795">
        <ele>99.96875</ele>
      </trkpt>
      <trkpt lat="49.19549" lon="-0.59844">
        <ele>100.0234375</ele>
      </trkpt>
      <trkpt lat="49.19589" lon="-0.60121">
        <ele>100.91015625</ele>
      </trkpt>
      <trkpt lat="49.19588" lon="-0.60289">
        <ele>101.46875</ele>
      </trkpt>
      <trkpt lat="49.19598" lon="-0.60353">
        <ele>101.265625</ele>
      </trkpt>
      <trkpt lat="49.19602" lon="-0.60647">
        <ele>96.890625</ele>
      </trkpt>
      <trkpt lat="49.19576" lon="-0.60669">
        <ele>96.98828125</ele>
      </trkpt>
      <trkpt lat="49.1965" lon="-0.61083">
        <ele>83.54296875</ele>
      </trkpt>
      <trkpt lat="49.19753" lon="-0.61438">
        <ele>74.93359375</ele>
      </trkpt>
      <trkpt lat="49.19858" lon="-0.61804">
        <ele>67.44140625</ele>
      </trkpt>
      <trkpt lat="49.19902" lon="-0.62018">
        <ele>63.9921875</ele>
      </trkpt>
      <trkpt lat="49.19935" lon="-0.62114">
        <ele>63.0625</ele>
      </trkpt>
      <trkpt lat="49.1995" lon="-0.62227">
        <ele>64.12109375</ele>
      </trkpt>
      <trkpt lat="49.19941" lon="-0.62309">
        <ele>62.34765625</ele>
      </trkpt>
      <trkpt lat="49.1992" lon="-0.6248">
        <ele>59.14453125</ele>
      </trkpt>
      <trkpt lat="49.19925" lon="-0.62747">
        <ele>46.8359375</ele>
      </trkpt>
      <trkpt lat="49.19937" lon="-0.62749">
        <ele>47.14453125</ele>
      </trkpt>
      <trkpt lat="49.19988" lon="-0.62769">
        <ele>47.515625</ele>
      </trkpt>
      <trkpt lat="49.20059" lon="-0.62825">
        <ele>45.9375</ele>
      </trkpt>
      <trkpt lat="49.20132" lon="-0.62877">
        <ele>44.75</ele>
      </trkpt>
      <trkpt lat="49.20311" lon="-0.62965">
        <ele>46.99609375</ele>
      </trkpt>
    </trkseg>
  </trk>
</gpx>